Paradise, California
Current Conditions -  °F | °C
As of 9:57 AM on Thursday 27 Nov 2014 (Local Time) from KCIC Reporting Station
Overcast Overcast  
Wind Chill: 50°   Ceiling: 25000
Heat Index: 50°   Visibility: 40mi
Dew Point: 48°   Wind: 0mph
Humidity: 94%   Direction: NA
Pressure: 30.21"   Gusts: NA
Location:  39.75°N, 121.6°W
Report Text: KCIC 271757Z 00000KT 40SM FEW100BKN150 OVC250 10/09 A3021
Loading
Personal Weather Stations






























Interactive Weather Map New forecast layout! Learn more

10-Day Weather Forecast

Advertisements
Track Severe Weather on mobile